sensor_id;sensor_type;location;lat;lon;timestamp;temperature;humidity
22852;DHT22;11592;45.460;9.240;2023-04-26T00:01:40;12.50;99.90
22852;DHT22;11592;45.460;9.240;2023-04-26T00:04:07;12.40;99.90
22852;DHT22;11592;45.460;9.240;2023-04-26T00:06:34;12.50;99.90
22852;DHT22;11592;45.460;9.240;2023-04-26T00:09:03;12.50;99.90
22852;DHT22;11592;45.460;9.240;2023-04-26T00:11:30;12.50;99.90
22852;DHT22;11592;45.460;9.240;2023-04-26T00:13:57;12.40;99.90
22852;DHT22;11592;45.460;9.240;2023-04-26T00:16:24;12.40;99.90
22852;DHT22;11592;45.460;9.240;2023-04-26T00:18:51;12.30;99.90
22852;DHT22;11592;45.460;9.240;2023-04-26T00:21:20;12.40;99.90
22852;DHT22;11592;45.460;9.240;2023-04-26T00:23:47;12.60;99.90
22852;DHT22;11592;45.460;9.240;2023-04-26T00:26:13;12.50;99.90
22852;DHT22;11592;45.460;9.240;2023-04-26T00:28:40;12.50;99.90
22852;DHT22;11592;45.460;9.240;2023-04-26T00:31:07;12.50;99.90
22852;DHT22;11592;45.460;9.240;2023-04-26T00:33:39;12.50;99.90
22852;DHT22;11592;45.460;9.240;2023-04-26T00:36:06;12.50;99.90
22852;DHT22;11592;45.460;9.240;2023-04-26T00:38:32;12.50;99.90
22852;DHT22;11592;45.460;9.240;2023-04-26T00:40:59;12.30;99.90
22852;DHT22;11592;45.460;9.240;2023-04-26T00:43:26;12.40;99.90
22852;DHT22;11592;45.460;9.240;2023-04-26T00:45:53;12.40;99.90
22852;DHT22;11592;45.460;9.240;2023-04-26T00:48:20;12.20;99.90
22852;DHT22;11592;45.460;9.240;2023-04-26T00:50:47;12.20;99.90
22852;DHT22;11592;45.460;9.240;2023-04-26T00:53:15;12.10;99.90
22852;DHT22;11592;45.460;9.240;2023-04-26T00:55:43;12.10;99.90
22852;DHT22;11592;45.460;9.240;2023-04-26T00:58:10;12.10;99.90
22852;DHT22;11592;45.460;9.240;2023-04-26T01:00:38;12.10;99.90
22852;DHT22;11592;45.460;9.240;2023-04-26T01:03:04;12.20;99.90
22852;DHT22;11592;45.460;9.240;2023-04-26T01:05:31;12.20;99.90
22852;DHT22;11592;45.460;9.240;2023-04-26T01:07:59;12.20;99.90
22852;DHT22;11592;45.460;9.240;2023-04-26T01:10:28;12.20;99.90
22852;DHT22;11592;45.460;9.240;2023-04-26T01:12:55;12.20;99.90
22852;DHT22;11592;45.460;9.240;2023-04-26T01:15:24;12.20;99.90
22852;DHT22;11592;45.460;9.240;2023-04-26T01:17:53;11.90;99.90
22852;DHT22;11592;45.460;9.240;2023-04-26T01:20:20;11.90;99.90
22852;DHT22;11592;45.460;9.240;2023-04-26T01:22:46;12.00;99.90
22852;DHT22;11592;45.460;9.240;2023-04-26T01:25:13;12.00;99.90
22852;DHT22;11592;45.460;9.240;2023-04-26T01:27:41;11.90;99.90
22852;DHT22;11592;45.460;9.240;2023-04-26T01:30:08;11.90;99.90
22852;DHT22;11592;45.460;9.240;2023-04-26T01:32:35;11.90;99.90
22852;DHT22;11592;45.460;9.240;2023-04-26T01:35:02;11.90;99.90
22852;DHT22;11592;45.460;9.240;2023-04-26T01:37:29;11.90;99.90
22852;DHT22;11592;45.460;9.240;2023-04-26T01:39:56;11.80;99.90
22852;DHT22;11592;45.460;9.240;2023-04-26T01:42:22;11.80;99.90
22852;DHT22;11592;45.460;9.240;2023-04-26T01:44:49;11.90;99.90
22852;DHT22;11592;45.460;9.240;2023-04-26T01:47:16;11.80;99.90
22852;DHT22;11592;45.460;9.240;2023-04-26T01:49:43;11.70;99.90
22852;DHT22;11592;45.460;9.240;2023-04-26T01:52:09;11.70;99.90
22852;DHT22;11592;45.460;9.240;2023-04-26T01:54:36;11.50;99.90
22852;DHT22;11592;45.460;9.240;2023-04-26T01:57:03;11.60;99.90
22852;DHT22;11592;45.460;9.240;2023-04-26T01:59:29;11.70;99.90
22852;DHT22;11592;45.460;9.240;2023-04-26T02:01:56;11.60;99.90
22852;DHT22;11592;45.460;9.240;2023-04-26T02:04:24;11.60;99.90
22852;DHT22;11592;45.460;9.240;2023-04-26T02:06:50;11.70;99.90
22852;DHT22;11592;45.460;9.240;2023-04-26T02:09:17;11.70;99.90
22852;DHT22;11592;45.460;9.240;2023-04-26T02:11:44;11.50;99.90
22852;DHT22;11592;45.460;9.240;2023-04-26T02:14:11;11.40;99.90
22852;DHT22;11592;45.460;9.240;2023-04-26T02:16:41;11.30;99.90
22852;DHT22;11592;45.460;9.240;2023-04-26T02:19:07;11.20;99.90
22852;DHT22;11592;45.460;9.240;2023-04-26T02:21:56;11.30;99.90
22852;DHT22;11592;45.460;9.240;2023-04-26T02:24:24;11.40;99.90
22852;DHT22;11592;45.460;9.240;2023-04-26T02:26:50;11.30;99.90
22852;DHT22;11592;45.460;9.240;2023-04-26T02:29:18;11.30;99.90
22852;DHT22;11592;45.460;9.240;2023-04-26T02:32:01;11.40;99.90
22852;DHT22;11592;45.460;9.240;2023-04-26T02:34:28;11.40;99.90
22852;DHT22;11592;45.460;9.240;2023-04-26T02:36:55;11.20;99.90
22852;DHT22;11592;45.460;9.240;2023-04-26T02:39:22;11.10;99.90
22852;DHT22;11592;45.460;9.240;2023-04-26T02:41:49;11.30;99.90
22852;DHT22;11592;45.460;9.240;2023-04-26T02:44:16;11.20;99.90
22852;DHT22;11592;45.460;9.240;2023-04-26T02:46:43;11.30;99.90
22852;DHT22;11592;45.460;9.240;2023-04-26T02:49:09;11.30;99.90
22852;DHT22;11592;45.460;9.240;2023-04-26T02:51:36;11.30;99.90
22852;DHT22;11592;45.460;9.240;2023-04-26T02:54:03;11.20;99.90
22852;DHT22;11592;45.460;9.240;2023-04-26T02:56:32;11.10;99.90
22852;DHT22;11592;45.460;9.240;2023-04-26T02:58:59;11.00;99.90
22852;DHT22;11592;45.460;9.240;2023-04-26T03:01:26;11.10;99.90
22852;DHT22;11592;45.460;9.240;2023-04-26T03:03:53;11.10;99.90
22852;DHT22;11592;45.460;9.240;2023-04-26T03:06:20;11.10;99.90
22852;DHT22;11592;45.460;9.240;2023-04-26T03:08:47;10.90;99.90
22852;DHT22;11592;45.460;9.240;2023-04-26T03:11:14;10.80;99.90
22852;DHT22;11592;45.460;9.240;2023-04-26T03:13:40;10.80;99.90
22852;DHT22;11592;45.460;9.240;2023-04-26T03:16:07;11.00;99.90
22852;DHT22;11592;45.460;9.240;2023-04-26T03:18:34;11.10;99.90
22852;DHT22;11592;45.460;9.240;2023-04-26T03:21:01;10.90;99.90
22852;DHT22;11592;45.460;9.240;2023-04-26T03:23:28;10.90;99.90
22852;DHT22;11592;45.460;9.240;2023-04-26T03:25:54;10.90;99.90
22852;DHT22;11592;45.460;9.240;2023-04-26T03:28:21;10.90;99.90
22852;DHT22;11592;45.460;9.240;2023-04-26T03:30:48;11.00;99.90
22852;DHT22;11592;45.460;9.240;2023-04-26T03:33:18;11.10;99.90
22852;DHT22;11592;45.460;9.240;2023-04-26T03:35:44;11.20;99.90
22852;DHT22;11592;45.460;9.240;2023-04-26T03:38:11;11.10;99.90
22852;DHT22;11592;45.460;9.240;2023-04-26T03:40:38;11.00;99.90
22852;DHT22;11592;45.460;9.240;2023-04-26T03:43:05;10.90;99.90
22852;DHT22;11592;45.460;9.240;2023-04-26T03:45:32;10.80;99.90
22852;DHT22;11592;45.460;9.240;2023-04-26T03:47:59;10.70;99.90
22852;DHT22;11592;45.460;9.240;2023-04-26T03:50:26;10.90;99.90
22852;DHT22;11592;45.460;9.240;2023-04-26T03:52:53;10.90;99.90
22852;DHT22;11592;45.460;9.240;2023-04-26T03:55:19;10.70;99.90
22852;DHT22;11592;45.460;9.240;2023-04-26T03:57:47;10.60;99.90
22852;DHT22;11592;45.460;9.240;2023-04-26T04:00:13;10.70;99.90
22852;DHT22;11592;45.460;9.240;2023-04-26T04:02:41;10.60;99.90
22852;DHT22;11592;45.460;9.240;2023-04-26T04:05:08;10.70;99.90
22852;DHT22;11592;45.460;9.240;2023-04-26T04:07:35;10.90;99.90
22852;DHT22;11592;45.460;9.240;2023-04-26T04:10:03;11.00;99.90
22852;DHT22;11592;45.460;9.240;2023-04-26T04:12:30;11.00;99.90
22852;DHT22;11592;45.460;9.240;2023-04-26T04:14:56;10.90;99.90
22852;DHT22;11592;45.460;9.240;2023-04-26T04:17:23;10.90;99.90
22852;DHT22;11592;45.460;9.240;2023-04-26T04:19:50;10.90;99.90
22852;DHT22;11592;45.460;9.240;2023-04-26T04:22:17;10.90;99.90
22852;DHT22;11592;45.460;9.240;2023-04-26T04:24:44;10.80;99.90
22852;DHT22;11592;45.460;9.240;2023-04-26T04:27:11;10.70;99.90
22852;DHT22;11592;45.460;9.240;2023-04-26T04:29:37;10.70;99.90
22852;DHT22;11592;45.460;9.240;2023-04-26T04:32:04;10.80;99.90
22852;DHT22;11592;45.460;9.240;2023-04-26T04:34:33;10.70;99.90
22852;DHT22;11592;45.460;9.240;2023-04-26T04:37:01;10.70;99.90
22852;DHT22;11592;45.460;9.240;2023-04-26T04:39:29;10.80;99.90
22852;DHT22;11592;45.460;9.240;2023-04-26T04:41:56;10.90;99.90
22852;DHT22;11592;45.460;9.240;2023-04-26T04:44:23;10.80;99.90
22852;DHT22;11592;45.460;9.240;2023-04-26T04:46:52;10.70;99.90
22852;DHT22;11592;45.460;9.240;2023-04-26T04:49:19;10.80;99.90
22852;DHT22;11592;45.460;9.240;2023-04-26T04:51:46;10.90;99.90
22852;DHT22;11592;45.460;9.240;2023-04-26T04:54:15;10.90;99.90
22852;DHT22;11592;45.460;9.240;2023-04-26T04:56:44;11.00;99.90
22852;DHT22;11592;45.460;9.240;2023-04-26T04:59:10;11.10;99.90
22852;DHT22;11592;45.460;9.240;2023-04-26T05:01:37;11.00;99.90
22852;DHT22;11592;45.460;9.240;2023-04-26T05:04:05;11.10;99.90
22852;DHT22;11592;45.460;9.240;2023-04-26T05:06:32;11.00;99.90
22852;DHT22;11592;45.460;9.240;2023-04-26T05:08:59;11.00;99.90
22852;DHT22;11592;45.460;9.240;2023-04-26T05:11:27;11.10;99.90
22852;DHT22;11592;45.460;9.240;2023-04-26T05:13:53;11.20;99.90
22852;DHT22;11592;45.460;9.240;2023-04-26T05:16:21;11.30;99.90
22852;DHT22;11592;45.460;9.240;2023-04-26T05:18:48;11.40;99.90
22852;DHT22;11592;45.460;9.240;2023-04-26T05:21:14;11.50;99.90
22852;DHT22;11592;45.460;9.240;2023-04-26T05:23:41;11.60;99.90
22852;DHT22;11592;45.460;9.240;2023-04-26T05:26:14;11.60;99.90
22852;DHT22;11592;45.460;9.240;2023-04-26T05:28:41;11.60;99.90
22852;DHT22;11592;45.460;9.240;2023-04-26T05:31:08;11.70;99.90
22852;DHT22;11592;45.460;9.240;2023-04-26T05:33:37;11.80;99.90
22852;DHT22;11592;45.460;9.240;2023-04-26T05:36:04;11.90;99.90
22852;DHT22;11592;45.460;9.240;2023-04-26T05:38:31;11.90;99.90
22852;DHT22;11592;45.460;9.240;2023-04-26T05:40:58;12.00;99.90
22852;DHT22;11592;45.460;9.240;2023-04-26T05:43:24;12.10;99.90
22852;DHT22;11592;45.460;9.240;2023-04-26T05:45:53;12.10;99.90
22852;DHT22;11592;45.460;9.240;2023-04-26T05:48:21;12.30;99.90
22852;DHT22;11592;45.460;9.240;2023-04-26T05:50:49;12.30;99.90
22852;DHT22;11592;45.460;9.240;2023-04-26T05:53:17;12.40;99.90
22852;DHT22;11592;45.460;9.240;2023-04-26T05:55:44;12.40;99.90
22852;DHT22;11592;45.460;9.240;2023-04-26T05:58:11;12.40;99.90
22852;DHT22;11592;45.460;9.240;2023-04-26T06:00:38;12.60;99.90
22852;DHT22;11592;45.460;9.240;2023-04-26T06:03:05;12.70;99.90
22852;DHT22;11592;45.460;9.240;2023-04-26T06:05:32;12.70;99.90
22852;DHT22;11592;45.460;9.240;2023-04-26T06:07:59;12.70;99.90
22852;DHT22;11592;45.460;9.240;2023-04-26T06:10:27;12.60;99.90
22852;DHT22;11592;45.460;9.240;2023-04-26T06:12:53;12.60;99.90
22852;DHT22;11592;45.460;9.240;2023-04-26T06:15:20;12.80;99.90
22852;DHT22;11592;45.460;9.240;2023-04-26T06:17:47;12.90;99.90
22852;DHT22;11592;45.460;9.240;2023-04-26T06:20:14;13.00;99.90
22852;DHT22;11592;45.460;9.240;2023-04-26T06:22:41;13.10;99.90
22852;DHT22;11592;45.460;9.240;2023-04-26T06:25:08;13.20;99.90
22852;DHT22;11592;45.460;9.240;2023-04-26T06:27:35;13.20;99.90
22852;DHT22;11592;45.460;9.240;2023-04-26T06:30:05;13.30;99.90
22852;DHT22;11592;45.460;9.240;2023-04-26T06:32:33;13.40;99.90
22852;DHT22;11592;45.460;9.240;2023-04-26T06:35:00;13.30;99.90
22852;DHT22;11592;45.460;9.240;2023-04-26T06:37:27;13.30;99.90
22852;DHT22;11592;45.460;9.240;2023-04-26T06:39:54;13.40;99.90
22852;DHT22;11592;45.460;9.240;2023-04-26T06:42:20;13.40;99.90
22852;DHT22;11592;45.460;9.240;2023-04-26T06:44:48;13.50;99.90
22852;DHT22;11592;45.460;9.240;2023-04-26T06:47:14;13.60;99.90
22852;DHT22;11592;45.460;9.240;2023-04-26T06:49:41;13.70;99.90
22852;DHT22;11592;45.460;9.240;2023-04-26T06:52:08;13.60;99.90
22852;DHT22;11592;45.460;9.240;2023-04-26T06:54:35;13.40;99.90
22852;DHT22;11592;45.460;9.240;2023-04-26T06:57:19;13.20;99.90
22852;DHT22;11592;45.460;9.240;2023-04-26T06:59:46;13.20;99.90
22852;DHT22;11592;45.460;9.240;2023-04-26T07:02:12;13.50;99.90
22852;DHT22;11592;45.460;9.240;2023-04-26T07:04:41;13.60;99.90
22852;DHT22;11592;45.460;9.240;2023-04-26T07:07:08;13.30;99.90
22852;DHT22;11592;45.460;9.240;2023-04-26T07:09:38;13.50;99.90
22852;DHT22;11592;45.460;9.240;2023-04-26T07:12:05;13.60;99.90
22852;DHT22;11592;45.460;9.240;2023-04-26T07:14:32;13.70;99.90
22852;DHT22;11592;45.460;9.240;2023-04-26T07:17:04;13.70;99.90
22852;DHT22;11592;45.460;9.240;2023-04-26T07:19:30;13.80;99.90
22852;DHT22;11592;45.460;9.240;2023-04-26T07:21:57;13.90;99.90
22852;DHT22;11592;45.460;9.240;2023-04-26T07:24:24;13.80;99.90
22852;DHT22;11592;45.460;9.240;2023-04-26T07:26:51;13.80;99.90
22852;DHT22;11592;45.460;9.240;2023-04-26T07:29:18;13.90;99.90
22852;DHT22;11592;45.460;9.240;2023-04-26T07:31:45;14.00;99.90
22852;DHT22;11592;45.460;9.240;2023-04-26T07:34:11;14.10;99.90
22852;DHT22;11592;45.460;9.240;2023-04-26T07:36:38;14.20;99.90
22852;DHT22;11592;45.460;9.240;2023-04-26T07:39:05;14.40;99.90
22852;DHT22;11592;45.460;9.240;2023-04-26T07:41:32;14.50;99.90
22852;DHT22;11592;45.460;9.240;2023-04-26T07:43:59;14.60;99.90
22852;DHT22;11592;45.460;9.240;2023-04-26T07:46:26;14.40;99.90
22852;DHT22;11592;45.460;9.240;2023-04-26T07:48:52;14.30;99.90
22852;DHT22;11592;45.460;9.240;2023-04-26T07:51:19;14.20;99.90
22852;DHT22;11592;45.460;9.240;2023-04-26T07:53:46;14.30;99.90
22852;DHT22;11592;45.460;9.240;2023-04-26T07:56:13;14.40;99.90
22852;DHT22;11592;45.460;9.240;2023-04-26T07:58:40;14.50;99.90
22852;DHT22;11592;45.460;9.240;2023-04-26T08:01:07;14.70;99.90
22852;DHT22;11592;45.460;9.240;2023-04-26T08:03:35;14.80;99.90
22852;DHT22;11592;45.460;9.240;2023-04-26T08:06:02;14.80;99.90
22852;DHT22;11592;45.460;9.240;2023-04-26T08:08:29;14.70;99.90
22852;DHT22;11592;45.460;9.240;2023-04-26T08:10:57;14.70;99.90
22852;DHT22;11592;45.460;9.240;2023-04-26T08:13:24;14.70;99.90
22852;DHT22;11592;45.460;9.240;2023-04-26T08:15:54;14.90;99.90
22852;DHT22;11592;45.460;9.240;2023-04-26T08:18:21;15.00;99.90
22852;DHT22;11592;45.460;9.240;2023-04-26T08:20:48;15.00;99.90
22852;DHT22;11592;45.460;9.240;2023-04-26T08:23:15;15.10;99.90
22852;DHT22;11592;45.460;9.240;2023-04-26T08:25:42;15.30;99.90
22852;DHT22;11592;45.460;9.240;2023-04-26T08:28:12;15.40;99.90
22852;DHT22;11592;45.460;9.240;2023-04-26T08:30:40;15.30;99.90
22852;DHT22;11592;45.460;9.240;2023-04-26T08:33:08;15.40;99.90
22852;DHT22;11592;45.460;9.240;2023-04-26T08:35:35;15.50;99.90
22852;DHT22;11592;45.460;9.240;2023-04-26T08:38:02;15.60;99.90
22852;DHT22;11592;45.460;9.240;2023-04-26T08:40:29;15.80;99.90
22852;DHT22;11592;45.460;9.240;2023-04-26T08:42:57;15.90;99.90
22852;DHT22;11592;45.460;9.240;2023-04-26T08:45:23;16.00;99.90
22852;DHT22;11592;45.460;9.240;2023-04-26T08:47:53;15.90;99.90
22852;DHT22;11592;45.460;9.240;2023-04-26T08:50:23;16.10;99.90
22852;DHT22;11592;45.460;9.240;2023-04-26T08:52:51;16.50;99.90
22852;DHT22;11592;45.460;9.240;2023-04-26T08:55:18;16.60;99.90
22852;DHT22;11592;45.460;9.240;2023-04-26T08:57:47;16.80;99.90
22852;DHT22;11592;45.460;9.240;2023-04-26T09:00:15;16.60;99.90
22852;DHT22;11592;45.460;9.240;2023-04-26T09:02:48;16.70;99.90
22852;DHT22;11592;45.460;9.240;2023-04-26T09:05:17;16.80;99.90
22852;DHT22;11592;45.460;9.240;2023-04-26T09:07:49;16.70;99.90
22852;DHT22;11592;45.460;9.240;2023-04-26T09:10:18;16.80;99.90
22852;DHT22;11592;45.460;9.240;2023-04-26T09:12:54;16.80;99.90
22852;DHT22;11592;45.460;9.240;2023-04-26T09:15:23;17.00;99.90
22852;DHT22;11592;45.460;9.240;2023-04-26T09:17:50;17.00;99.90
22852;DHT22;11592;45.460;9.240;2023-04-26T09:22:48;17.00;99.90
22852;DHT22;11592;45.460;9.240;2023-04-26T09:25:17;16.90;99.90
22852;DHT22;11592;45.460;9.240;2023-04-26T09:27:45;16.70;99.90
22852;DHT22;11592;45.460;9.240;2023-04-26T09:30:16;16.70;99.90
22852;DHT22;11592;45.460;9.240;2023-04-26T09:35:28;17.10;99.90
22852;DHT22;11592;45.460;9.240;2023-04-26T09:38:01;17.40;99.90
22852;DHT22;11592;45.460;9.240;2023-04-26T09:40:41;17.40;99.90
22852;DHT22;11592;45.460;9.240;2023-04-26T09:48:13;17.60;99.90
22852;DHT22;11592;45.460;9.240;2023-04-26T09:50:43;17.80;99.90
22852;DHT22;11592;45.460;9.240;2023-04-26T09:55:56;18.10;99.90
22852;DHT22;11592;45.460;9.240;2023-04-26T09:58:23;18.10;99.90
22852;DHT22;11592;45.460;9.240;2023-04-26T10:00:50;18.20;99.90
22852;DHT22;11592;45.460;9.240;2023-04-26T10:03:19;18.30;99.90
22852;DHT22;11592;45.460;9.240;2023-04-26T10:05:49;18.40;99.90
22852;DHT22;11592;45.460;9.240;2023-04-26T10:08:15;18.50;99.90
22852;DHT22;11592;45.460;9.240;2023-04-26T10:10:42;18.60;99.90
22852;DHT22;11592;45.460;9.240;2023-04-26T10:13:11;18.70;99.90
22852;DHT22;11592;45.460;9.240;2023-04-26T10:15:39;18.80;99.90
22852;DHT22;11592;45.460;9.240;2023-04-26T10:18:07;19.00;99.90
22852;DHT22;11592;45.460;9.240;2023-04-26T10:20:34;19.10;99.90
22852;DHT22;11592;45.460;9.240;2023-04-26T10:23:05;19.20;99.90
22852;DHT22;11592;45.460;9.240;2023-04-26T10:25:39;19.30;99.90
22852;DHT22;11592;45.460;9.240;2023-04-26T10:28:07;19.20;98.90
22852;DHT22;11592;45.460;9.240;2023-04-26T10:30:53;18.90;99.10
22852;DHT22;11592;45.460;9.240;2023-04-26T10:33:21;19.00;97.30
22852;DHT22;11592;45.460;9.240;2023-04-26T10:36:18;19.20;96.10
22852;DHT22;11592;45.460;9.240;2023-04-26T10:39:18;19.50;96.80
22852;DHT22;11592;45.460;9.240;2023-04-26T10:41:48;20.00;97.40
22852;DHT22;11592;45.460;9.240;2023-04-26T10:47:06;20.70;97.10
22852;DHT22;11592;45.460;9.240;2023-04-26T10:49:44;21.00;97.90
22852;DHT22;11592;45.460;9.240;2023-04-26T10:52:13;21.20;95.60
22852;DHT22;11592;45.460;9.240;2023-04-26T10:54:46;21.20;93.20
22852;DHT22;11592;45.460;9.240;2023-04-26T10:57:13;21.20;93.20
22852;DHT22;11592;45.460;9.240;2023-04-26T11:02:51;21.40;95.50
22852;DHT22;11592;45.460;9.240;2023-04-26T11:05:51;21.30;92.50
22852;DHT22;11592;45.460;9.240;2023-04-26T11:08:28;21.40;91.40
22852;DHT22;11592;45.460;9.240;2023-04-26T11:11:09;21.80;94.20
22852;DHT22;11592;45.460;9.240;2023-04-26T11:13:43;22.10;91.60
22852;DHT22;11592;45.460;9.240;2023-04-26T11:16:14;22.20;92.80
22852;DHT22;11592;45.460;9.240;2023-04-26T11:18:42;22.40;91.60
22852;DHT22;11592;45.460;9.240;2023-04-26T11:21:10;22.50;88.10
22852;DHT22;11592;45.460;9.240;2023-04-26T11:23:39;22.60;89.20
22852;DHT22;11592;45.460;9.240;2023-04-26T11:26:07;22.80;85.90
22852;DHT22;11592;45.460;9.240;2023-04-26T11:28:38;22.70;84.30
22852;DHT22;11592;45.460;9.240;2023-04-26T11:31:05;23.00;86.30
22852;DHT22;11592;45.460;9.240;2023-04-26T11:33:32;23.20;83.70
22852;DHT22;11592;45.460;9.240;2023-04-26T11:36:00;23.30;82.50
22852;DHT22;11592;45.460;9.240;2023-04-26T11:38:27;23.40;80.60
22852;DHT22;11592;45.460;9.240;2023-04-26T11:41:02;23.30;80.70
22852;DHT22;11592;45.460;9.240;2023-04-26T11:43:36;23.30;84.10
22852;DHT22;11592;45.460;9.240;2023-04-26T11:46:04;23.50;86.50
22852;DHT22;11592;45.460;9.240;2023-04-26T11:48:34;23.50;80.10
22852;DHT22;11592;45.460;9.240;2023-04-26T11:51:03;23.60;78.50
22852;DHT22;11592;45.460;9.240;2023-04-26T11:53:37;23.70;76.60
22852;DHT22;11592;45.460;9.240;2023-04-26T11:58:43;24.10;81.10
22852;DHT22;11592;45.460;9.240;2023-04-26T12:01:10;24.30;77.20
22852;DHT22;11592;45.460;9.240;2023-04-26T12:03:37;24.40;77.10
22852;DHT22;11592;45.460;9.240;2023-04-26T12:06:04;24.50;78.70
22852;DHT22;11592;45.460;9.240;2023-04-26T12:08:32;24.80;73.60
22852;DHT22;11592;45.460;9.240;2023-04-26T12:11:00;24.90;72.90
22852;DHT22;11592;45.460;9.240;2023-04-26T12:13:28;24.90;68.80
22852;DHT22;11592;45.460;9.240;2023-04-26T12:15:55;25.00;72.80
22852;DHT22;11592;45.460;9.240;2023-04-26T12:18:29;24.90;71.80
22852;DHT22;11592;45.460;9.240;2023-04-26T12:21:00;25.00;76.80
22852;DHT22;11592;45.460;9.240;2023-04-26T12:23:36;24.90;66.10
22852;DHT22;11592;45.460;9.240;2023-04-26T12:26:05;24.40;70.20
22852;DHT22;11592;45.460;9.240;2023-04-26T12:28:32;24.60;70.60
22852;DHT22;11592;45.460;9.240;2023-04-26T12:30:58;24.80;72.90
22852;DHT22;11592;45.460;9.240;2023-04-26T12:33:27;25.10;73.70
22852;DHT22;11592;45.460;9.240;2023-04-26T12:35:53;25.20;73.50
22852;DHT22;11592;45.460;9.240;2023-04-26T12:38:20;25.40;70.40
22852;DHT22;11592;45.460;9.240;2023-04-26T12:40:47;25.50;74.60
22852;DHT22;11592;45.460;9.240;2023-04-26T12:43:14;25.30;68.80
22852;DHT22;11592;45.460;9.240;2023-04-26T12:45:42;25.40;66.20
22852;DHT22;11592;45.460;9.240;2023-04-26T12:48:09;25.80;66.80
22852;DHT22;11592;45.460;9.240;2023-04-26T12:50:37;26.10;61.70
22852;DHT22;11592;45.460;9.240;2023-04-26T12:53:04;26.10;60.10
22852;DHT22;11592;45.460;9.240;2023-04-26T12:55:31;26.20;69.20
22852;DHT22;11592;45.460;9.240;2023-04-26T12:57:58;26.40;66.50
22852;DHT22;11592;45.460;9.240;2023-04-26T13:00:25;26.60;56.20
22852;DHT22;11592;45.460;9.240;2023-04-26T13:02:52;26.40;56.00
22852;DHT22;11592;45.460;9.240;2023-04-26T13:05:20;26.40;54.70
22852;DHT22;11592;45.460;9.240;2023-04-26T13:07:47;26.80;55.00
22852;DHT22;11592;45.460;9.240;2023-04-26T13:10:14;27.20;54.30
22852;DHT22;11592;45.460;9.240;2023-04-26T13:12:41;27.80;53.30
22852;DHT22;11592;45.460;9.240;2023-04-26T13:15:08;28.30;46.50
22852;DHT22;11592;45.460;9.240;2023-04-26T13:17:36;29.00;41.30
22852;DHT22;11592;45.460;9.240;2023-04-26T13:20:04;29.70;47.60
22852;DHT22;11592;45.460;9.240;2023-04-26T13:22:32;30.70;45.30
22852;DHT22;11592;45.460;9.240;2023-04-26T13:24:59;31.40;43.50
22852;DHT22;11592;45.460;9.240;2023-04-26T13:27:26;31.50;38.00
22852;DHT22;11592;45.460;9.240;2023-04-26T13:29:57;31.70;38.90
22852;DHT22;11592;45.460;9.240;2023-04-26T13:32:23;32.50;38.90
22852;DHT22;11592;45.460;9.240;2023-04-26T13:34:50;33.40;35.70
22852;DHT22;11592;45.460;9.240;2023-04-26T13:37:18;34.00;36.10
22852;DHT22;11592;45.460;9.240;2023-04-26T13:39:47;33.70;34.80
22852;DHT22;11592;45.460;9.240;2023-04-26T13:42:14;33.00;32.60
22852;DHT22;11592;45.460;9.240;2023-04-26T13:44:42;31.20;32.60
22852;DHT22;11592;45.460;9.240;2023-04-26T13:47:08;31.00;32.90
22852;DHT22;11592;45.460;9.240;2023-04-26T13:49:35;32.20;36.50
22852;DHT22;11592;45.460;9.240;2023-04-26T13:52:02;32.30;32.50
22852;DHT22;11592;45.460;9.240;2023-04-26T13:54:29;32.70;33.70
22852;DHT22;11592;45.460;9.240;2023-04-26T13:56:56;33.10;31.20
22852;DHT22;11592;45.460;9.240;2023-04-26T13:59:23;33.90;34.60
22852;DHT22;11592;45.460;9.240;2023-04-26T14:01:50;34.30;32.10
22852;DHT22;11592;45.460;9.240;2023-04-26T14:04:20;34.30;30.30
22852;DHT22;11592;45.460;9.240;2023-04-26T14:06:48;33.30;34.00
22852;DHT22;11592;45.460;9.240;2023-04-26T14:09:14;32.90;29.40
22852;DHT22;11592;45.460;9.240;2023-04-26T14:11:41;32.50;29.70
22852;DHT22;11592;45.460;9.240;2023-04-26T14:14:08;31.40;30.10
22852;DHT22;11592;45.460;9.240;2023-04-26T14:16:35;31.20;31.30
22852;DHT22;11592;45.460;9.240;2023-04-26T14:19:02;30.20;31.10
22852;DHT22;11592;45.460;9.240;2023-04-26T14:21:29;30.30;34.00
22852;DHT22;11592;45.460;9.240;2023-04-26T14:23:57;30.20;32.00
22852;DHT22;11592;45.460;9.240;2023-04-26T14:26:24;30.20;31.90
22852;DHT22;11592;45.460;9.240;2023-04-26T14:28:51;29.20;31.90
22852;DHT22;11592;45.460;9.240;2023-04-26T14:31:18;28.90;34.80
22852;DHT22;11592;45.460;9.240;2023-04-26T14:33:45;28.40;35.20
22852;DHT22;11592;45.460;9.240;2023-04-26T14:36:12;28.20;36.60
22852;DHT22;11592;45.460;9.240;2023-04-26T14:38:42;28.10;35.30
22852;DHT22;11592;45.460;9.240;2023-04-26T14:41:15;28.90;34.90
22852;DHT22;11592;45.460;9.240;2023-04-26T14:43:43;29.80;34.10
22852;DHT22;11592;45.460;9.240;2023-04-26T14:46:12;30.30;33.10
22852;DHT22;11592;45.460;9.240;2023-04-26T14:48:39;30.80;31.50
22852;DHT22;11592;45.460;9.240;2023-04-26T14:51:06;30.70;33.30
22852;DHT22;11592;45.460;9.240;2023-04-26T14:53:32;30.00;32.70
22852;DHT22;11592;45.460;9.240;2023-04-26T14:55:59;29.60;32.10
22852;DHT22;11592;45.460;9.240;2023-04-26T14:58:26;28.60;32.00
22852;DHT22;11592;45.460;9.240;2023-04-26T15:00:53;29.00;35.40
22852;DHT22;11592;45.460;9.240;2023-04-26T15:03:20;28.80;32.50
22852;DHT22;11592;45.460;9.240;2023-04-26T15:05:47;29.00;32.80
22852;DHT22;11592;45.460;9.240;2023-04-26T15:08:14;29.10;33.90
22852;DHT22;11592;45.460;9.240;2023-04-26T15:10:41;28.80;32.60
22852;DHT22;11592;45.460;9.240;2023-04-26T15:13:08;28.80;34.00
22852;DHT22;11592;45.460;9.240;2023-04-26T15:15:34;29.70;35.40
22852;DHT22;11592;45.460;9.240;2023-04-26T15:18:01;30.40;37.00
22852;DHT22;11592;45.460;9.240;2023-04-26T15:20:29;30.60;33.10
22852;DHT22;11592;45.460;9.240;2023-04-26T15:22:55;30.90;34.70
22852;DHT22;11592;45.460;9.240;2023-04-26T15:25:22;31.00;32.90
22852;DHT22;11592;45.460;9.240;2023-04-26T15:27:49;31.40;33.00
22852;DHT22;11592;45.460;9.240;2023-04-26T15:30:16;31.50;32.80
22852;DHT22;11592;45.460;9.240;2023-04-26T15:32:46;31.10;31.10
22852;DHT22;11592;45.460;9.240;2023-04-26T15:35:14;30.60;32.20
22852;DHT22;11592;45.460;9.240;2023-04-26T15:37:43;30.70;33.40
22852;DHT22;11592;45.460;9.240;2023-04-26T15:40:10;30.80;32.50
22852;DHT22;11592;45.460;9.240;2023-04-26T15:42:37;29.50;32.90
22852;DHT22;11592;45.460;9.240;2023-04-26T15:45:05;28.20;34.00
22852;DHT22;11592;45.460;9.240;2023-04-26T15:47:33;28.00;34.70
22852;DHT22;11592;45.460;9.240;2023-04-26T15:50:05;27.20;35.00
22852;DHT22;11592;45.460;9.240;2023-04-26T15:52:34;26.60;35.40
22852;DHT22;11592;45.460;9.240;2023-04-26T15:55:05;26.60;38.10
22852;DHT22;11592;45.460;9.240;2023-04-26T15:57:35;26.80;36.20